Terminal Aerodrome Forecast
Issued by NWS

Home | Current Version | Previous Version | Text Only | Print | Product List | Glossary On
Versions: 1 2 3 4 5 6 7 8 9 10 11 12 13 14 15 16 17 18 19 20 21
000
FTUS44 KLZK 300500
TAFHOT
TAF
KHOT 300534Z 3006/3106 15006KT P6SM -RA BKN015 OVC040
     FM300900 29005KT P6SM VCSH OVC015
     FM301500 29006KT P6SM VCSH BKN025 OVC050
     FM301800 30010KT P6SM VCSH SCT015 BKN050 OVC100=

USA.gov is the U.S. government's official web portal to all federal, state and local government web resources and services.